Gouwestroom — PDGR — position and weather

sailwx.info

Track history (hours):
 
Tides and Currents Weather Stations Pressure Air Temp Water Temp Dewpoint Dewpoint Depression Visibility Wind Speed Wind Dir Waves Ship Positions

Gouwestroom

Last reported at 2014-Aug-20 04:30 UTC. Time now 2014-Aug-20 04:51 UTC.
Position N 54°07' E 012°05'.

Length 20 m; draft 2.4 m.

Type: Tug. MMSI: 246166000.

Date/timePositionNaut miles runAvg speedWind from/ knotsBaromVisibWave heightAir tempDewpointWater temp
2014-Aug-20 04:30N 54°07' E 012°05'0 0.0
2014-Aug-20 03:33N 54°07' E 012°05'0 0.0
2014-Aug-20 02:27N 54°07' E 012°05'0 0.0
2014-Aug-20 01:29N 54°07' E 012°05'0 0.0
2014-Aug-20 00:33N 54°07' E 012°05'0 0.0
2014-Aug-19 23:32N 54°07' E 012°05'0 0.0
2014-Aug-19 22:32N 54°07' E 012°05'0 0.0
2014-Aug-19 21:33N 54°07' E 012°05'0 0.0
2014-Aug-19 20:33N 54°07' E 012°05'0 0.0
2014-Aug-19 19:33N 54°07' E 012°05'0 0.0
2014-Aug-19 18:34N 54°07' E 012°05'0 0.0
2014-Aug-19 17:33N 54°07' E 012°05'0 0.0
2014-Aug-19 16:33N 54°07' E 012°05'0 0.0
2014-Aug-19 15:33N 54°07' E 012°05'0 0.0
2014-Aug-19 14:33N 54°07' E 012°05'0 0.0
2014-Aug-19 13:34N 54°07' E 012°05'0 0.0
2014-Aug-19 12:33N 54°07' E 012°05'0 0.0
2014-Aug-19 11:33N 54°07' E 012°05'0 0.0
2014-Aug-19 10:30N 54°07' E 012°05'0 0.0
2014-Aug-19 09:34N 54°07' E 012°05'0 0.0
2014-Aug-19 08:33N 54°07' E 012°05'0 0.0
2014-Aug-19 07:33N 54°07' E 012°05'0 0.0
2014-Aug-19 06:33N 54°07' E 012°05'0 0.0
2014-Aug-19 05:33N 54°07' E 012°05'0 0.0
2014-Aug-19 04:33N 54°07' E 012°05'0 0.0
2014-Aug-19 03:33N 54°07' E 012°05'0 0.0
2014-Aug-19 02:27N 54°07' E 012°05'0 0.0
2014-Aug-19 01:25N 54°07' E 012°05'0 0.0
2014-Aug-19 00:33N 54°07' E 012°05'0 0.0
2014-Aug-18 23:29N 54°07' E 012°05'0 0.0
2014-Aug-18 22:33N 54°07' E 012°05'0 0.0
2014-Aug-18 21:30N 54°07' E 012°05'0 0.0
2014-Aug-18 20:30N 54°07' E 012°05'0 0.0
2014-Aug-18 19:30N 54°07' E 012°05'0 0.0
2014-Aug-18 18:33N 54°07' E 012°05'0 0.0
2014-Aug-18 17:34N 54°07' E 012°05'0 0.0
2014-Aug-18 16:29N 54°07' E 012°05'0 0.0
2014-Aug-18 15:25N 54°07' E 012°05'0 0.0
2014-Aug-18 14:33N 54°07' E 012°05'0 0.0
2014-Aug-18 13:32N 54°07' E 012°05'0 0.1
2014-Aug-18 12:33N 54°07' E 012°05'6 6.4
2014-Aug-18 11:33N 54°13' E 012°02'7 7.3
2014-Aug-18 10:34N 54°16' E 011°51'93 5.8
2014-Aug-17 18:33N 53°58' E 009°16'6 6.1
2014-Aug-17 17:33N 53°54' E 009°09'1 1.3
2014-Aug-17 16:33N 53°53' E 009°07'6 6.3
2014-Aug-17 15:33N 53°51' E 008°57'10 9.8
2014-Aug-17 14:33N 53°54' E 008°41'1210.3
2014-Aug-17 13:21N 53°59' E 008°22'910.2
2014-Aug-17 12:26N 53°58' E 008°06'66 8.3
2014-Aug-17 04:31N 53°43' E 006°17'8 8.5
2014-Aug-17 03:33N 53°40' E 006°04'9 8.9
2014-Aug-17 02:33N 53°37' E 005°50'9 9.3
2014-Aug-17 01:33N 53°35' E 005°35'10 9.5
2014-Aug-17 00:34N 53°32' E 005°20'10 9.8
2014-Aug-16 23:34N 53°29' E 005°04'1010.1
2014-Aug-16 22:33N 53°24' E 004°49'3110.2
2014-Aug-16 19:30N 52°58' E 004°20'43 8.4
2014-Aug-16 14:20N 52°18' E 003°53'5 6.8
2014-Aug-16 13:33N 52°13' E 003°53'7 6.5
2014-Aug-16 12:32N 52°07' E 003°55'7 6.8
2014-Aug-16 11:33N 52°01' E 004°01'10 9.8
2014-Aug-16 10:33N 51°56' E 004°14'10 9.5
2014-Aug-16 09:33N 51°55' E 004°29'7 7.0
2014-Aug-16 08:33N 51°51' E 004°39'6 6.1
2014-Aug-16 07:33N 51°49' E 004°48'3 2.5
2014-Aug-16 06:31N 51°49' E 004°53'0 0.0
2014-Aug-16 05:31N 51°49' E 004°53'0 0.0
2014-Aug-16 04:31N 51°49' E 004°53'0 0.0
2014-Aug-16 03:31N 51°49' E 004°53'0 0.0
2014-Aug-16 02:28N 51°49' E 004°53'0 0.0
2014-Aug-16 01:28N 51°49' E 004°53'0 0.0
2014-Aug-16 00:31N 51°49' E 004°53'0 0.0
2014-Aug-15 23:31N 51°49' E 004°53'0 0.0
2014-Aug-15 22:31N 51°49' E 004°53'0 0.0
2014-Aug-15 21:31N 51°49' E 004°53'0 0.0
2014-Aug-15 20:31N 51°49' E 004°53'0 0.0
2014-Aug-15 19:28N 51°49' E 004°53'0 0.0
2014-Aug-15 18:31N 51°49' E 004°53'0 0.0
2014-Aug-15 17:31N 51°49' E 004°53'0 0.0
2014-Aug-15 16:31N 51°49' E 004°53'0 0.0
2014-Aug-15 15:31N 51°49' E 004°53'0 0.0
2014-Aug-15 14:33N 51°49' E 004°53'0 0.0
2014-Aug-15 13:33N 51°49' E 004°53'0 0.0
2014-Aug-15 12:33N 51°49' E 004°53'0 0.0
2014-Aug-15 11:30N 51°49' E 004°53'0 0.0
2014-Aug-15 10:33N 51°49' E 004°53'0 0.0
2014-Aug-15 09:33N 51°49' E 004°53'0 0.0
2014-Aug-15 08:33N 51°49' E 004°53'0 0.0
2014-Aug-15 07:33N 51°49' E 004°53'0 0.0
2014-Aug-15 06:33N 51°49' E 004°53'0 0.0
2014-Aug-15 05:33N 51°49' E 004°53'0 0.0
2014-Aug-15 04:33N 51°49' E 004°53'0 0.0
2014-Aug-15 03:33N 51°49' E 004°53'0 0.0
2014-Aug-15 02:33N 51°49' E 004°53'0 0.0
2014-Aug-15 01:33N 51°49' E 004°53'0 0.0
2014-Aug-15 00:33N 51°49' E 004°53'0 0.0
2014-Aug-14 23:33N 51°49' E 004°53'0 0.0
2014-Aug-14 22:33N 51°49' E 004°53'0 0.0
2014-Aug-14 21:33N 51°49' E 004°53'0 0.0
2014-Aug-14 20:33N 51°49' E 004°53'0 0.0
2014-Aug-14 19:33N 51°49' E 004°53'0 0.0
2014-Aug-14 18:33N 51°49' E 004°53'0 0.0
2014-Aug-14 17:33N 51°49' E 004°53'0 0.0
2014-Aug-14 16:33N 51°49' E 004°53'0 0.0
2014-Aug-14 15:33N 51°49' E 004°53'0 0.0
2014-Aug-14 14:33N 51°49' E 004°53'0 0.0
2014-Aug-14 13:33N 51°49' E 004°53'0 0.0
2014-Aug-14 12:33N 51°49' E 004°53'0 0.0
2014-Aug-14 11:33N 51°49' E 004°53'0 0.0
2014-Aug-14 10:33N 51°49' E 004°53'0 0.0
2014-Aug-14 09:33N 51°49' E 004°53'0 0.0
2014-Aug-14 08:33N 51°49' E 004°53'0 0.0
2014-Aug-14 07:33N 51°49' E 004°53'0 0.0
2014-Aug-14 06:33N 51°49' E 004°53'0 0.0
2014-Aug-14 05:33N 51°49' E 004°53'0 0.0
2014-Aug-14 04:33N 51°49' E 004°53'0 0.0
2014-Aug-14 03:33N 51°49' E 004°53'0 0.0
2014-Aug-14 02:33N 51°49' E 004°53'0 0.0
2014-Aug-14 01:33N 51°49' E 004°53'0 0.0
2014-Aug-14 00:33N 51°49' E 004°53'0 0.0
2014-Aug-13 23:33N 51°49' E 004°53'0 0.0
2014-Aug-13 22:33N 51°49' E 004°53'0 0.0
2014-Aug-13 21:33N 51°49' E 004°53'0 0.0
2014-Aug-13 20:33N 51°49' E 004°53'0 0.0
2014-Aug-13 19:33N 51°49' E 004°53'0 0.0
2014-Aug-13 18:33N 51°49' E 004°53'0 0.0
2014-Aug-13 17:33N 51°49' E 004°53'0 0.0
2014-Aug-13 16:33N 51°49' E 004°53'0 0.0
2014-Aug-13 15:33N 51°49' E 004°53'0 0.0
2014-Aug-13 14:33N 51°49' E 004°53'0 0.0
2014-Aug-13 13:33N 51°49' E 004°53'0 0.0
2014-Aug-13 12:33N 51°49' E 004°53'0 0.0
2014-Aug-13 11:33N 51°49' E 004°53'0 0.0
2014-Aug-13 10:33N 51°49' E 004°53'0 0.0
2014-Aug-13 09:33N 51°49' E 004°53'0 0.0
2014-Aug-13 08:33N 51°49' E 004°53'0 0.0
2014-Aug-13 07:33N 51°49' E 004°53'0 0.0
2014-Aug-13 06:33N 51°49' E 004°53'0 0.0
2014-Aug-13 05:33N 51°49' E 004°53'0 0.0
2014-Aug-13 04:33N 51°49' E 004°53'0 0.0
2014-Aug-13 03:33N 51°49' E 004°53'0 0.0
2014-Aug-13 02:33N 51°49' E 004°53'0 0.0
2014-Aug-13 01:33N 51°49' E 004°53'0 0.0
2014-Aug-13 00:33N 51°49' E 004°53'0 0.0
2014-Aug-12 23:33N 51°49' E 004°53'0 0.0
2014-Aug-12 22:33N 51°49' E 004°53'0 0.0
2014-Aug-12 21:33N 51°49' E 004°53'0 0.0
2014-Aug-12 20:33N 51°49' E 004°53'0 0.0
2014-Aug-12 19:33N 51°49' E 004°53'0 0.0
2014-Aug-12 18:33N 51°49' E 004°53'0 0.0
2014-Aug-12 17:33N 51°49' E 004°53'0 0.0
2014-Aug-12 16:33N 51°49' E 004°53'0 0.0
2014-Aug-12 15:33N 51°49' E 004°53'0 0.0
2014-Aug-12 14:33N 51°49' E 004°53'0 0.0
2014-Aug-12 13:33N 51°49' E 004°53'0 0.0
2014-Aug-12 12:33N 51°49' E 004°53'0 0.0
2014-Aug-12 11:33N 51°49' E 004°53'0 0.0
2014-Aug-12 10:33N 51°49' E 004°53'0 0.0
2014-Aug-12 09:33N 51°49' E 004°53'0 0.0
2014-Aug-12 08:33N 51°49' E 004°53'0 0.0
2014-Aug-12 07:33N 51°49' E 004°53'0 0.0
2014-Aug-12 06:33N 51°49' E 004°53'0 0.0
2014-Aug-12 05:33N 51°49' E 004°53'0 0.0
2014-Aug-12 04:33N 51°49' E 004°53'0 0.0
2014-Aug-12 03:33N 51°49' E 004°53'0 0.0
2014-Aug-12 02:33N 51°49' E 004°53'0 0.0
2014-Aug-12 01:33N 51°49' E 004°53'0 0.0
2014-Aug-12 00:33N 51°49' E 004°53'0 0.0
2014-Aug-11 23:33N 51°49' E 004°53'0 0.0
2014-Aug-11 22:33N 51°49' E 004°53'0 0.0
2014-Aug-11 21:33N 51°49' E 004°53'0 0.0
2014-Aug-11 20:33N 51°49' E 004°53'0 0.0
2014-Aug-11 19:33N 51°49' E 004°53'0 0.0
2014-Aug-11 18:33N 51°49' E 004°53'0 0.0
2014-Aug-11 17:33N 51°49' E 004°53'0 0.0
2014-Aug-11 16:33N 51°49' E 004°53'0 0.0
2014-Aug-11 15:33N 51°49' E 004°53'0 0.0
2014-Aug-11 14:33N 51°49' E 004°53'0 0.0
2014-Aug-11 13:33N 51°49' E 004°53'0 0.0
2014-Aug-11 12:33N 51°49' E 004°53'0 0.0
2014-Aug-11 11:33N 51°49' E 004°53'0 0.0
2014-Aug-11 10:33N 51°49' E 004°53'0 0.0
2014-Aug-11 09:33N 51°49' E 004°53'0 0.0
2014-Aug-11 08:33N 51°49' E 004°53'0 0.0
2014-Aug-11 07:33N 51°49' E 004°53'0 0.0
2014-Aug-11 06:33N 51°49' E 004°53'0 0.0
2014-Aug-11 05:33N 51°49' E 004°53'0 0.0
2014-Aug-11 04:33N 51°49' E 004°53'0 0.0
2014-Aug-11 03:33N 51°49' E 004°53'0 0.0
2014-Aug-11 02:33N 51°49' E 004°53'0 0.0
2014-Aug-11 01:33N 51°49' E 004°53'0 0.0
2014-Aug-11 00:33N 51°49' E 004°53'0 0.0
2014-Aug-10 23:33N 51°49' E 004°53'0 0.0
2014-Aug-10 22:33N 51°49' E 004°53'0 0.0
2014-Aug-10 21:33N 51°49' E 004°53'0 0.0
2014-Aug-10 20:33N 51°49' E 004°53'0 0.0
2014-Aug-10 19:33N 51°49' E 004°53'0 0.0
2014-Aug-10 18:33N 51°49' E 004°53'0 0.0
2014-Aug-10 17:33N 51°49' E 004°53'0 0.0
2014-Aug-10 16:33N 51°49' E 004°53'0 0.0
2014-Aug-10 15:33N 51°49' E 004°53'0 0.0
2014-Aug-10 14:33N 51°49' E 004°53'0 0.0
2014-Aug-10 13:33N 51°49' E 004°53'0 0.0
2014-Aug-10 12:33N 51°49' E 004°53'0 0.0
2014-Aug-10 11:33N 51°49' E 004°53'0 0.0
2014-Aug-10 10:33N 51°49' E 004°53'0 0.0
2014-Aug-10 09:33N 51°49' E 004°53'0 0.0
2014-Aug-10 08:33N 51°49' E 004°53'0 0.0
2014-Aug-10 07:33N 51°49' E 004°53'0 0.0
2014-Aug-10 06:33N 51°49' E 004°53'0 0.0
2014-Aug-10 05:33N 51°49' E 004°53'0 0.0
2014-Aug-10 04:33N 51°49' E 004°53'  
Track history (hours):
 
Tides and Currents Weather Stations Pressure Air Temp Water Temp Dewpoint Dewpoint Depression Visibility Wind Speed Wind Dir Waves Ship Positions

Gouwestroom

Last reported at 2014-Aug-20 04:30 UTC. Time now 2014-Aug-20 04:51 UTC.
Position N 54°07' E 012°05'.

Length 20 m; draft 2.4 m.

Type: Tug. MMSI: 246166000.

Date/timePositionNaut miles runAvg speedWind from/ knotsBaromVisibWave heightAir tempDewpointWater temp
2014-Aug-20 04:30N 54°07' E 012°05'0 0.0
2014-Aug-20 03:33N 54°07' E 012°05'0 0.0
2014-Aug-20 02:27N 54°07' E 012°05'0 0.0
2014-Aug-20 01:29N 54°07' E 012°05'0 0.0
2014-Aug-20 00:33N 54°07' E 012°05'0 0.0
2014-Aug-19 23:32N 54°07' E 012°05'0 0.0
2014-Aug-19 22:32N 54°07' E 012°05'0 0.0
2014-Aug-19 21:33N 54°07' E 012°05'0 0.0
2014-Aug-19 20:33N 54°07' E 012°05'0 0.0
2014-Aug-19 19:33N 54°07' E 012°05'0 0.0
2014-Aug-19 18:34N 54°07' E 012°05'0 0.0
2014-Aug-19 17:33N 54°07' E 012°05'0 0.0
2014-Aug-19 16:33N 54°07' E 012°05'0 0.0
2014-Aug-19 15:33N 54°07' E 012°05'0 0.0
2014-Aug-19 14:33N 54°07' E 012°05'0 0.0
2014-Aug-19 13:34N 54°07' E 012°05'0 0.0
2014-Aug-19 12:33N 54°07' E 012°05'0 0.0
2014-Aug-19 11:33N 54°07' E 012°05'0 0.0
2014-Aug-19 10:30N 54°07' E 012°05'0 0.0
2014-Aug-19 09:34N 54°07' E 012°05'0 0.0
2014-Aug-19 08:33N 54°07' E 012°05'0 0.0
2014-Aug-19 07:33N 54°07' E 012°05'0 0.0
2014-Aug-19 06:33N 54°07' E 012°05'0 0.0
2014-Aug-19 05:33N 54°07' E 012°05'0 0.0
2014-Aug-19 04:33N 54°07' E 012°05'0 0.0
2014-Aug-19 03:33N 54°07' E 012°05'0 0.0
2014-Aug-19 02:27N 54°07' E 012°05'0 0.0
2014-Aug-19 01:25N 54°07' E 012°05'0 0.0
2014-Aug-19 00:33N 54°07' E 012°05'0 0.0
2014-Aug-18 23:29N 54°07' E 012°05'0 0.0
2014-Aug-18 22:33N 54°07' E 012°05'0 0.0
2014-Aug-18 21:30N 54°07' E 012°05'0 0.0
2014-Aug-18 20:30N 54°07' E 012°05'0 0.0
2014-Aug-18 19:30N 54°07' E 012°05'0 0.0
2014-Aug-18 18:33N 54°07' E 012°05'0 0.0
2014-Aug-18 17:34N 54°07' E 012°05'0 0.0
2014-Aug-18 16:29N 54°07' E 012°05'0 0.0
2014-Aug-18 15:25N 54°07' E 012°05'0 0.0
2014-Aug-18 14:33N 54°07' E 012°05'0 0.0
2014-Aug-18 13:32N 54°07' E 012°05'0 0.1
2014-Aug-18 12:33N 54°07' E 012°05'6 6.4
2014-Aug-18 11:33N 54°13' E 012°02'7 7.3
2014-Aug-18 10:34N 54°16' E 011°51'93 5.8
2014-Aug-17 18:33N 53°58' E 009°16'6 6.1
2014-Aug-17 17:33N 53°54' E 009°09'1 1.3
2014-Aug-17 16:33N 53°53' E 009°07'6 6.3
2014-Aug-17 15:33N 53°51' E 008°57'10 9.8
2014-Aug-17 14:33N 53°54' E 008°41'1210.3
2014-Aug-17 13:21N 53°59' E 008°22'910.2
2014-Aug-17 12:26N 53°58' E 008°06'66 8.3
2014-Aug-17 04:31N 53°43' E 006°17'8 8.5
2014-Aug-17 03:33N 53°40' E 006°04'9 8.9
2014-Aug-17 02:33N 53°37' E 005°50'9 9.3
2014-Aug-17 01:33N 53°35' E 005°35'10 9.5
2014-Aug-17 00:34N 53°32' E 005°20'10 9.8
2014-Aug-16 23:34N 53°29' E 005°04'1010.1
2014-Aug-16 22:33N 53°24' E 004°49'3110.2
2014-Aug-16 19:30N 52°58' E 004°20'43 8.4
2014-Aug-16 14:20N 52°18' E 003°53'5 6.8
2014-Aug-16 13:33N 52°13' E 003°53'7 6.5
2014-Aug-16 12:32N 52°07' E 003°55'7 6.8
2014-Aug-16 11:33N 52°01' E 004°01'10 9.8
2014-Aug-16 10:33N 51°56' E 004°14'10 9.5
2014-Aug-16 09:33N 51°55' E 004°29'7 7.0
2014-Aug-16 08:33N 51°51' E 004°39'6 6.1
2014-Aug-16 07:33N 51°49' E 004°48'3 2.5
2014-Aug-16 06:31N 51°49' E 004°53'0 0.0
2014-Aug-16 05:31N 51°49' E 004°53'0 0.0
2014-Aug-16 04:31N 51°49' E 004°53'0 0.0
2014-Aug-16 03:31N 51°49' E 004°53'0 0.0
2014-Aug-16 02:28N 51°49' E 004°53'0 0.0
2014-Aug-16 01:28N 51°49' E 004°53'0 0.0
2014-Aug-16 00:31N 51°49' E 004°53'0 0.0
2014-Aug-15 23:31N 51°49' E 004°53'0 0.0
2014-Aug-15 22:31N 51°49' E 004°53'0 0.0
2014-Aug-15 21:31N 51°49' E 004°53'0 0.0
2014-Aug-15 20:31N 51°49' E 004°53'0 0.0
2014-Aug-15 19:28N 51°49' E 004°53'0 0.0
2014-Aug-15 18:31N 51°49' E 004°53'0 0.0
2014-Aug-15 17:31N 51°49' E 004°53'0 0.0
2014-Aug-15 16:31N 51°49' E 004°53'0 0.0
2014-Aug-15 15:31N 51°49' E 004°53'0 0.0
2014-Aug-15 14:33N 51°49' E 004°53'0 0.0
2014-Aug-15 13:33N 51°49' E 004°53'0 0.0
2014-Aug-15 12:33N 51°49' E 004°53'0 0.0
2014-Aug-15 11:30N 51°49' E 004°53'0 0.0
2014-Aug-15 10:33N 51°49' E 004°53'0 0.0
2014-Aug-15 09:33N 51°49' E 004°53'0 0.0
2014-Aug-15 08:33N 51°49' E 004°53'0 0.0
2014-Aug-15 07:33N 51°49' E 004°53'0 0.0
2014-Aug-15 06:33N 51°49' E 004°53'0 0.0
2014-Aug-15 05:33N 51°49' E 004°53'0 0.0
2014-Aug-15 04:33N 51°49' E 004°53'0 0.0
2014-Aug-15 03:33N 51°49' E 004°53'0 0.0
2014-Aug-15 02:33N 51°49' E 004°53'0 0.0
2014-Aug-15 01:33N 51°49' E 004°53'0 0.0
2014-Aug-15 00:33N 51°49' E 004°53'0 0.0
2014-Aug-14 23:33N 51°49' E 004°53'0 0.0
2014-Aug-14 22:33N 51°49' E 004°53'0 0.0
2014-Aug-14 21:33N 51°49' E 004°53'0 0.0
2014-Aug-14 20:33N 51°49' E 004°53'0 0.0
2014-Aug-14 19:33N 51°49' E 004°53'0 0.0
2014-Aug-14 18:33N 51°49' E 004°53'0 0.0
2014-Aug-14 17:33N 51°49' E 004°53'0 0.0
2014-Aug-14 16:33N 51°49' E 004°53'0 0.0
2014-Aug-14 15:33N 51°49' E 004°53'0 0.0
2014-Aug-14 14:33N 51°49' E 004°53'0 0.0
2014-Aug-14 13:33N 51°49' E 004°53'0 0.0
2014-Aug-14 12:33N 51°49' E 004°53'0 0.0
2014-Aug-14 11:33N 51°49' E 004°53'0 0.0
2014-Aug-14 10:33N 51°49' E 004°53'0 0.0
2014-Aug-14 09:33N 51°49' E 004°53'0 0.0
2014-Aug-14 08:33N 51°49' E 004°53'0 0.0
2014-Aug-14 07:33N 51°49' E 004°53'0 0.0
2014-Aug-14 06:33N 51°49' E 004°53'0 0.0
2014-Aug-14 05:33N 51°49' E 004°53'0 0.0
2014-Aug-14 04:33N 51°49' E 004°53'0 0.0
2014-Aug-14 03:33N 51°49' E 004°53'0 0.0
2014-Aug-14 02:33N 51°49' E 004°53'0 0.0
2014-Aug-14 01:33N 51°49' E 004°53'0 0.0
2014-Aug-14 00:33N 51°49' E 004°53'0 0.0
2014-Aug-13 23:33N 51°49' E 004°53'0 0.0
2014-Aug-13 22:33N 51°49' E 004°53'0 0.0
2014-Aug-13 21:33N 51°49' E 004°53'0 0.0
2014-Aug-13 20:33N 51°49' E 004°53'0 0.0
2014-Aug-13 19:33N 51°49' E 004°53'0 0.0
2014-Aug-13 18:33N 51°49' E 004°53'0 0.0
2014-Aug-13 17:33N 51°49' E 004°53'0 0.0
2014-Aug-13 16:33N 51°49' E 004°53'0 0.0
2014-Aug-13 15:33N 51°49' E 004°53'0 0.0
2014-Aug-13 14:33N 51°49' E 004°53'0 0.0
2014-Aug-13 13:33N 51°49' E 004°53'0 0.0
2014-Aug-13 12:33N 51°49' E 004°53'0 0.0
2014-Aug-13 11:33N 51°49' E 004°53'0 0.0
2014-Aug-13 10:33N 51°49' E 004°53'0 0.0
2014-Aug-13 09:33N 51°49' E 004°53'0 0.0
2014-Aug-13 08:33N 51°49' E 004°53'0 0.0
2014-Aug-13 07:33N 51°49' E 004°53'0 0.0
2014-Aug-13 06:33N 51°49' E 004°53'0 0.0
2014-Aug-13 05:33N 51°49' E 004°53'0 0.0
2014-Aug-13 04:33N 51°49' E 004°53'0 0.0
2014-Aug-13 03:33N 51°49' E 004°53'0 0.0
2014-Aug-13 02:33N 51°49' E 004°53'0 0.0
2014-Aug-13 01:33N 51°49' E 004°53'0 0.0
2014-Aug-13 00:33N 51°49' E 004°53'0 0.0
2014-Aug-12 23:33N 51°49' E 004°53'0 0.0
2014-Aug-12 22:33N 51°49' E 004°53'0 0.0
2014-Aug-12 21:33N 51°49' E 004°53'0 0.0
2014-Aug-12 20:33N 51°49' E 004°53'0 0.0
2014-Aug-12 19:33N 51°49' E 004°53'0 0.0
2014-Aug-12 18:33N 51°49' E 004°53'0 0.0
2014-Aug-12 17:33N 51°49' E 004°53'0 0.0
2014-Aug-12 16:33N 51°49' E 004°53'0 0.0
2014-Aug-12 15:33N 51°49' E 004°53'0 0.0
2014-Aug-12 14:33N 51°49' E 004°53'0 0.0
2014-Aug-12 13:33N 51°49' E 004°53'0 0.0
2014-Aug-12 12:33N 51°49' E 004°53'0 0.0
2014-Aug-12 11:33N 51°49' E 004°53'0 0.0
2014-Aug-12 10:33N 51°49' E 004°53'0 0.0
2014-Aug-12 09:33N 51°49' E 004°53'0 0.0
2014-Aug-12 08:33N 51°49' E 004°53'0 0.0
2014-Aug-12 07:33N 51°49' E 004°53'0 0.0
2014-Aug-12 06:33N 51°49' E 004°53'0 0.0
2014-Aug-12 05:33N 51°49' E 004°53'0 0.0
2014-Aug-12 04:33N 51°49' E 004°53'0 0.0
2014-Aug-12 03:33N 51°49' E 004°53'0 0.0
2014-Aug-12 02:33N 51°49' E 004°53'0 0.0
2014-Aug-12 01:33N 51°49' E 004°53'0 0.0
2014-Aug-12 00:33N 51°49' E 004°53'0 0.0
2014-Aug-11 23:33N 51°49' E 004°53'0 0.0
2014-Aug-11 22:33N 51°49' E 004°53'0 0.0
2014-Aug-11 21:33N 51°49' E 004°53'0 0.0
2014-Aug-11 20:33N 51°49' E 004°53'0 0.0
2014-Aug-11 19:33N 51°49' E 004°53'0 0.0
2014-Aug-11 18:33N 51°49' E 004°53'0 0.0
2014-Aug-11 17:33N 51°49' E 004°53'0 0.0
2014-Aug-11 16:33N 51°49' E 004°53'0 0.0
2014-Aug-11 15:33N 51°49' E 004°53'0 0.0
2014-Aug-11 14:33N 51°49' E 004°53'0 0.0
2014-Aug-11 13:33N 51°49' E 004°53'0 0.0
2014-Aug-11 12:33N 51°49' E 004°53'0 0.0
2014-Aug-11 11:33N 51°49' E 004°53'0 0.0
2014-Aug-11 10:33N 51°49' E 004°53'0 0.0
2014-Aug-11 09:33N 51°49' E 004°53'0 0.0
2014-Aug-11 08:33N 51°49' E 004°53'0 0.0
2014-Aug-11 07:33N 51°49' E 004°53'0 0.0
2014-Aug-11 06:33N 51°49' E 004°53'0 0.0
2014-Aug-11 05:33N 51°49' E 004°53'0 0.0
2014-Aug-11 04:33N 51°49' E 004°53'0 0.0
2014-Aug-11 03:33N 51°49' E 004°53'0 0.0
2014-Aug-11 02:33N 51°49' E 004°53'0 0.0
2014-Aug-11 01:33N 51°49' E 004°53'0 0.0
2014-Aug-11 00:33N 51°49' E 004°53'0 0.0
2014-Aug-10 23:33N 51°49' E 004°53'0 0.0
2014-Aug-10 22:33N 51°49' E 004°53'0 0.0
2014-Aug-10 21:33N 51°49' E 004°53'0 0.0
2014-Aug-10 20:33N 51°49' E 004°53'0 0.0
2014-Aug-10 19:33N 51°49' E 004°53'0 0.0
2014-Aug-10 18:33N 51°49' E 004°53'0 0.0
2014-Aug-10 17:33N 51°49' E 004°53'0 0.0
2014-Aug-10 16:33N 51°49' E 004°53'0 0.0
2014-Aug-10 15:33N 51°49' E 004°53'0 0.0
2014-Aug-10 14:33N 51°49' E 004°53'0 0.0
2014-Aug-10 13:33N 51°49' E 004°53'0 0.0
2014-Aug-10 12:33N 51°49' E 004°53'0 0.0
2014-Aug-10 11:33N 51°49' E 004°53'0 0.0
2014-Aug-10 10:33N 51°49' E 004°53'0 0.0
2014-Aug-10 09:33N 51°49' E 004°53'0 0.0
2014-Aug-10 08:33N 51°49' E 004°53'0 0.0
2014-Aug-10 07:33N 51°49' E 004°53'0 0.0
2014-Aug-10 06:33N 51°49' E 004°53'0 0.0
2014-Aug-10 05:33N 51°49' E 004°53'0 0.0
2014-Aug-10 04:33N 51°49' E 004°53'  

Dump ship's entire track history